Time;durP1;ratioP1;P1;durP2;ratioP2;P2;SDS_P1;SDS_P2;PMS_P1;PMS_P2;Temp;Humidity;BMP_temperature;BMP_pressure;BME280_temperature;BME280_humidity;BME280_pressure;Samples;Min_cycle;Max_cycle;Signal;HPM_P1;HPM_P2
2021/11/30 00:01:25;;;;;;;3.05;0.75;;;;;;;;;;5270795;22;20116;-60
2021/11/30 00:03:51;;;;;;;4.18;0.82;;;;;;;;;;5049153;28;20036;-63
2021/11/30 00:06:21;;;;;;;3.10;0.90;;;;;;;;;;5044993;28;20066;-60
2021/11/30 00:08:51;;;;;;;5.22;1.05;;;;;;;;;;5057947;28;20739;-59
2021/11/30 00:11:16;;;;;;;6.72;0.90;;;;;;;;;;5040081;28;20032;-60
2021/11/30 00:13:44;;;;;;;3.13;1.10;;;;;;;;;;5028219;28;20024;-59
2021/11/30 00:16:13;;;;;;;2.78;0.70;;;;;;;;;;5059484;28;20043;-60
2021/11/30 00:18:41;;;;;;;4.95;1.00;;;;;;;;;;5058689;28;20478;-61
2021/11/30 00:21:07;;;;;;;4.88;0.95;;;;;;;;;;5056382;28;20035;-61
2021/11/30 00:23:33;;;;;;;11.13;1.08;;;;;;;;;;5038518;28;20095;-60
2021/11/30 00:26:00;;;;;;;4.55;0.82;;;;;;;;;;5058957;28;20230;-61
2021/11/30 00:28:27;;;;;;;2.80;1.13;;;;;;;;;;5023881;28;20020;-59
2021/11/30 00:30:55;;;;;;;7.40;1.13;;;;;;;;;;5058050;28;20035;-59
2021/11/30 00:33:22;;;;;;;4.30;1.13;;;;;;;;;;5058813;28;20028;-59
2021/11/30 00:35:53;;;;;;;7.32;1.33;;;;;;;;;;5037586;28;20027;-60
2021/11/30 00:38:19;;;;;;;0.98;0.60;;;;;;;;;;5036276;28;20204;-59
2021/11/30 00:40:49;;;;;;;6.85;1.08;;;;;;;;;;5059109;28;20107;-60
2021/11/30 00:43:26;;;;;;;4.72;1.10;;;;;;;;;;5057106;28;20138;-60
2021/11/30 00:46:17;;;;;;;4.05;1.08;;;;;;;;;;5056250;28;20119;-59
2021/11/30 00:48:45;;;;;;;9.57;1.75;;;;;;;;;;5043449;28;20028;-59
2021/11/30 00:51:13;;;;;;;4.13;0.85;;;;;;;;;;5041836;28;20071;-59
2021/11/30 00:57:18;;;;;;;8.20;1.52;;;;;;;;;;5057223;28;20043;-61
2021/11/30 00:59:44;;;;;;;1.42;0.75;;;;;;;;;;5053374;28;20114;-61
2021/11/30 01:02:14;;;;;;;7.20;1.42;;;;;;;;;;5032283;28;20131;-61
2021/11/30 01:04:42;;;;;;;7.00;1.45;;;;;;;;;;5015973;28;22954;-61
2021/11/30 01:07:11;;;;;;;2.42;1.20;;;;;;;;;;5017301;28;20155;-59
2021/11/30 01:09:43;;;;;;;2.53;1.20;;;;;;;;;;5017620;28;20036;-58
2021/11/30 01:12:09;;;;;;;9.02;1.70;;;;;;;;;;5030662;28;20036;-61
2021/11/30 01:14:37;;;;;;;8.35;2.17;;;;;;;;;;5016180;28;20059;-60
2021/11/30 01:17:03;;;;;;;4.53;1.58;;;;;;;;;;5016203;28;20107;-60
2021/11/30 01:19:28;;;;;;;5.82;1.80;;;;;;;;;;5036569;28;20033;-59
2021/11/30 01:21:59;;;;;;;7.03;1.48;;;;;;;;;;5036454;28;20059;-59
2021/11/30 01:24:25;;;;;;;12.55;2.30;;;;;;;;;;5001155;28;20116;-60
2021/11/30 01:26:50;;;;;;;3.80;2.00;;;;;;;;;;5020303;28;20036;-60
2021/11/30 01:29:20;;;;;;;12.57;1.80;;;;;;;;;;5038398;28;20044;-61
2021/11/30 01:31:50;;;;;;;5.57;1.73;;;;;;;;;;5036672;28;20067;-58
2021/11/30 01:34:16;;;;;;;4.78;1.63;;;;;;;;;;5025597;28;20069;-61
2021/11/30 01:36:41;;;;;;;3.60;1.30;;;;;;;;;;5015132;28;20037;-59
2021/11/30 01:39:12;;;;;;;7.80;2.00;;;;;;;;;;5038806;28;20041;-59
2021/11/30 01:41:40;;;;;;;7.40;2.50;;;;;;;;;;5016109;28;20048;-61
2021/11/30 01:44:24;;;;;;;6.97;1.70;;;;;;;;;;5037476;28;20203;-59
2021/11/30 01:52:05;;;;;;;4.88;1.25;;;;;;;;;;5035683;28;20028;-59
2021/11/30 01:54:38;;;;;;;2.40;1.35;;;;;;;;;;5035244;28;20036;-60
2021/11/30 01:57:09;;;;;;;12.88;1.38;;;;;;;;;;5035272;28;20040;-61
2021/11/30 01:59:38;;;;;;;5.47;1.67;;;;;;;;;;5022589;28;20131;-59
2021/11/30 02:02:06;;;;;;;7.10;1.75;;;;;;;;;;5036931;28;20136;-60
2021/11/30 02:04:34;;;;;;;7.07;2.13;;;;;;;;;;5038153;28;20036;-60
2021/11/30 02:07:00;;;;;;;3.88;1.63;;;;;;;;;;5037728;28;20152;-60
2021/11/30 02:09:28;;;;;;;7.03;2.30;;;;;;;;;;5052404;28;20091;-60
2021/11/30 02:11:56;;;;;;;3.55;2.17;;;;;;;;;;5002337;28;20040;-60
2021/11/30 02:14:22;;;;;;;7.80;2.05;;;;;;;;;;5020925;28;20056;-59
2021/11/30 02:16:50;;;;;;;6.13;1.88;;;;;;;;;;5038125;28;20106;-60
2021/11/30 02:19:16;;;;;;;3.10;2.10;;;;;;;;;;5035351;28;20048;-60
2021/11/30 02:21:44;;;;;;;3.20;2.08;;;;;;;;;;5036467;28;20029;-60
2021/11/30 02:24:10;;;;;;;2.78;2.13;;;;;;;;;;5035283;28;20099;-60
2021/11/30 02:26:39;;;;;;;2.95;2.17;;;;;;;;;;5035823;28;21074;-59
2021/11/30 02:29:11;;;;;;;4.90;2.72;;;;;;;;;;5036678;28;20037;-59
2021/11/30 02:31:47;;;;;;;11.45;3.58;;;;;;;;;;5038190;28;20220;-59
2021/11/30 02:34:13;;;;;;;3.45;3.05;;;;;;;;;;5040129;28;20025;-58
2021/11/30 02:39:10;;;;;;;6.20;2.95;;;;;;;;;;5037592;28;20025;-58
2021/11/30 02:41:36;;;;;;;4.70;3.10;;;;;;;;;;5033693;28;20563;-57
2021/11/30 02:44:04;;;;;;;3.42;2.97;;;;;;;;;;5037185;28;20028;-57
2021/11/30 02:46:38;;;;;;;4.95;3.42;;;;;;;;;;5052803;28;20040;-58
2021/11/30 02:49:06;;;;;;;7.60;2.90;;;;;;;;;;5039716;28;20043;-57
2021/11/30 02:51:34;;;;;;;6.93;3.72;;;;;;;;;;5040351;28;20028;-58
2021/11/30 02:54:05;;;;;;;9.55;3.55;;;;;;;;;;5024481;28;20044;-58
2021/11/30 02:56:30;;;;;;;3.10;2.63;;;;;;;;;;5039228;28;20776;-59
2021/11/30 02:58:59;;;;;;;5.00;2.97;;;;;;;;;;5040669;28;20373;-58
2021/11/30 03:01:30;;;;;;;4.78;2.85;;;;;;;;;;5017526;28;20051;-60
2021/11/30 03:03:58;;;;;;;6.75;2.70;;;;;;;;;;5035018;28;20053;-57
2021/11/30 03:06:26;;;;;;;5.68;2.75;;;;;;;;;;5038389;28;20139;-58
2021/11/30 03:08:56;;;;;;;4.25;2.50;;;;;;;;;;5036379;28;20033;-58
2021/11/30 03:11:26;;;;;;;4.95;3.03;;;;;;;;;;5036180;28;20041;-59
2021/11/30 03:13:52;;;;;;;4.63;2.95;;;;;;;;;;5043394;28;20488;-59
2021/11/30 03:16:18;;;;;;;2.55;2.10;;;;;;;;;;5035596;28;20033;-58
2021/11/30 03:18:44;;;;;;;3.58;2.30;;;;;;;;;;5023022;28;20266;-59
2021/11/30 03:21:11;;;;;;;4.30;2.67;;;;;;;;;;5048577;28;20040;-58
2021/11/30 03:23:37;;;;;;;5.65;3.13;;;;;;;;;;5038602;28;20028;-62
2021/11/30 03:26:07;;;;;;;3.22;2.25;;;;;;;;;;5035452;28;20566;-59
2021/11/30 03:28:35;;;;;;;3.70;2.97;;;;;;;;;;5022301;28;20127;-59
2021/11/30 03:31:05;;;;;;;6.25;3.30;;;;;;;;;;5034396;28;20114;-58
2021/11/30 03:36:19;;;;;;;3.87;2.70;;;;;;;;;;5035814;28;20373;-59
2021/11/30 03:38:48;;;;;;;6.68;3.47;;;;;;;;;;5039344;28;20279;-57
2021/11/30 03:41:17;;;;;;;6.93;3.40;;;;;;;;;;5033857;28;21441;-59
2021/11/30 03:43:43;;;;;;;5.35;3.45;;;;;;;;;;5033238;28;20033;-59
2021/11/30 03:46:11;;;;;;;4.07;2.97;;;;;;;;;;5034228;28;20806;-59
2021/11/30 03:48:39;;;;;;;4.22;2.72;;;;;;;;;;5006004;28;20029;-58
2021/11/30 03:51:05;;;;;;;4.70;2.95;;;;;;;;;;5034546;28;20075;-57
2021/11/30 03:53:31;;;;;;;9.65;3.78;;;;;;;;;;5035157;28;20033;-59
2021/11/30 03:56:00;;;;;;;8.30;3.85;;;;;;;;;;5035545;28;20052;-58
2021/11/30 03:58:26;;;;;;;6.43;3.95;;;;;;;;;;5034840;28;20479;-58
2021/11/30 04:00:57;;;;;;;7.07;3.35;;;;;;;;;;5035371;28;20096;-58
2021/11/30 04:03:23;;;;;;;6.25;4.28;;;;;;;;;;5032793;28;20059;-58
2021/11/30 04:05:49;;;;;;;5.28;3.33;;;;;;;;;;5051151;28;20123;-58
2021/11/30 04:08:14;;;;;;;10.63;4.28;;;;;;;;;;5037263;28;20029;-58
2021/11/30 04:10:42;;;;;;;7.57;3.50;;;;;;;;;;5038342;28;20068;-58
2021/11/30 04:13:10;;;;;;;11.05;3.13;;;;;;;;;;5019275;28;20032;-59
2021/11/30 04:15:43;;;;;;;4.35;2.80;;;;;;;;;;5049413;28;20052;-58
2021/11/30 04:18:08;;;;;;;9.23;3.53;;;;;;;;;;5036641;28;20033;-60
2021/11/30 04:20:36;;;;;;;5.45;2.53;;;;;;;;;;5033988;28;21542;-58
2021/11/30 04:23:02;;;;;;;14.60;2.72;;;;;;;;;;5037606;28;20044;-59
2021/11/30 04:25:27;;;;;;;11.95;2.30;;;;;;;;;;5035266;28;20032;-59
2021/11/30 04:27:56;;;;;;;3.47;1.52;;;;;;;;;;5019730;28;20040;-59
2021/11/30 04:30:23;;;;;;;4.88;1.63;;;;;;;;;;5039878;28;20065;-59
2021/11/30 04:32:52;;;;;;;6.13;1.50;;;;;;;;;;5035316;28;20037;-59
2021/11/30 04:35:18;;;;;;;13.20;1.75;;;;;;;;;;5035014;28;20033;-59
2021/11/30 04:37:47;;;;;;;9.38;1.45;;;;;;;;;;5033241;28;20036;-60
2021/11/30 04:40:13;;;;;;;11.30;1.80;;;;;;;;;;5033249;28;20110;-60
2021/11/30 04:42:42;;;;;;;11.25;1.48;;;;;;;;;;5036123;28;20036;-58
2021/11/30 04:45:15;;;;;;;8.02;1.35;;;;;;;;;;5033878;28;20024;-58
2021/11/30 04:47:42;;;;;;;11.18;1.92;;;;;;;;;;5036039;28;20121;-58
2021/11/30 04:50:14;;;;;;;10.95;1.88;;;;;;;;;;5035919;28;20511;-58
2021/11/30 04:52:43;;;;;;;10.73;1.20;;;;;;;;;;5052291;28;20035;-58
2021/11/30 04:55:09;;;;;;;4.47;0.95;;;;;;;;;;5023509;28;20047;-59
2021/11/30 04:57:35;;;;;;;5.80;1.20;;;;;;;;;;5039067;28;20037;-58
2021/11/30 05:00:00;;;;;;;12.07;1.33;;;;;;;;;;5040959;28;20032;-59
2021/11/30 05:02:29;;;;;;;16.85;2.22;;;;;;;;;;5038133;28;20044;-60
2021/11/30 05:04:56;;;;;;;12.93;1.50;;;;;;;;;;5044730;28;22009;-58
2021/11/30 05:11:00;;;;;;;11.18;1.50;;;;;;;;;;5040546;28;20448;-60
2021/11/30 05:13:29;;;;;;;16.33;1.55;;;;;;;;;;5027368;28;20064;-59
2021/11/30 05:15:59;;;;;;;8.43;0.77;;;;;;;;;;5053123;28;20029;-59
2021/11/30 05:18:29;;;;;;;9.85;1.10;;;;;;;;;;5051719;28;20036;-58
2021/11/30 05:21:00;;;;;;;14.70;1.33;;;;;;;;;;5010017;28;21279;-60
2021/11/30 05:23:29;;;;;;;7.78;0.93;;;;;;;;;;5021698;28;20032;-59
2021/11/30 05:26:02;;;;;;;13.65;1.65;;;;;;;;;;5043293;28;20162;-59
2021/11/30 05:28:30;;;;;;;16.23;1.40;;;;;;;;;;5041628;28;20597;-58
2021/11/30 05:30:59;;;;;;;11.32;1.42;;;;;;;;;;5036325;28;20028;-59
2021/11/30 05:33:27;;;;;;;9.27;1.35;;;;;;;;;;5040943;28;20109;-60
2021/11/30 05:35:55;;;;;;;23.52;1.20;;;;;;;;;;5038960;28;20036;-58
2021/11/30 05:38:23;;;;;;;9.50;0.95;;;;;;;;;;5050203;28;20024;-60
2021/11/30 05:40:52;;;;;;;16.23;2.17;;;;;;;;;;5038627;28;20117;-61
2021/11/30 05:43:19;;;;;;;17.40;2.08;;;;;;;;;;5044272;28;20029;-59
2021/11/30 05:45:47;;;;;;;16.77;1.67;;;;;;;;;;5037849;28;20021;-58
2021/11/30 05:48:14;;;;;;;6.88;2.03;;;;;;;;;;5041192;28;20064;-60
2021/11/30 05:50:39;;;;;;;9.88;1.70;;;;;;;;;;5040451;28;20721;-58
2021/11/30 05:53:09;;;;;;;19.17;1.73;;;;;;;;;;5041255;28;20036;-59
2021/11/30 05:55:37;;;;;;;18.52;1.98;;;;;;;;;;5037020;28;21174;-60
2021/11/30 05:58:08;;;;;;;19.80;2.20;;;;;;;;;;5039924;28;20041;-58
2021/11/30 06:00:33;;;;;;;17.15;1.80;;;;;;;;;;5037023;28;20113;-59
2021/11/30 06:03:07;;;;;;;7.57;1.38;;;;;;;;;;5036041;28;20053;-58
2021/11/30 06:05:34;;;;;;;25.00;2.47;;;;;;;;;;5035234;28;20120;-58
2021/11/30 06:08:07;;;;;;;7.68;1.55;;;;;;;;;;5040097;28;20563;-59
2021/11/30 06:10:33;;;;;;;18.48;1.60;;;;;;;;;;5038888;28;20041;-59
2021/11/30 06:13:03;;;;;;;12.15;1.55;;;;;;;;;;5039202;28;20038;-60
2021/11/30 06:15:32;;;;;;;26.77;2.35;;;;;;;;;;5020218;28;20126;-60
2021/11/30 06:17:57;;;;;;;20.35;2.65;;;;;;;;;;5036764;28;20025;-59
2021/11/30 06:20:23;;;;;;;24.60;3.15;;;;;;;;;;5034397;28;20076;-58
2021/11/30 06:22:51;;;;;;;6.35;1.60;;;;;;;;;;5041659;28;20036;-59
2021/11/30 06:25:21;;;;;;;18.65;2.20;;;;;;;;;;5037941;28;20025;-59
2021/11/30 06:27:52;;;;;;;15.35;2.00;;;;;;;;;;5039282;28;20157;-58
2021/11/30 06:30:17;;;;;;;13.45;1.17;;;;;;;;;;5041140;28;20966;-59
2021/11/30 06:32:43;;;;;;;16.05;1.65;;;;;;;;;;5017546;28;20020;-59
2021/11/30 06:35:08;;;;;;;21.23;3.20;;;;;;;;;;5039299;28;20155;-59
2021/11/30 06:37:34;;;;;;;19.98;1.75;;;;;;;;;;5035241;28;20047;-59
2021/11/30 06:40:05;;;;;;;20.10;1.58;;;;;;;;;;5039358;28;20499;-57
2021/11/30 06:42:34;;;;;;;14.20;2.13;;;;;;;;;;5040820;28;20060;-59
2021/11/30 06:45:00;;;;;;;17.65;2.17;;;;;;;;;;5037765;28;20021;-59
2021/11/30 06:47:28;;;;;;;13.45;1.65;;;;;;;;;;5037487;28;20039;-58
2021/11/30 06:49:54;;;;;;;10.82;1.77;;;;;;;;;;5040877;28;20048;-58
2021/11/30 06:52:20;;;;;;;13.07;2.08;;;;;;;;;;5037015;28;20040;-57
2021/11/30 06:54:51;;;;;;;9.05;1.30;;;;;;;;;;5041682;28;20440;-59
2021/11/30 06:57:17;;;;;;;19.75;2.05;;;;;;;;;;5041947;28;20589;-58
2021/11/30 06:59:47;;;;;;;12.77;1.48;;;;;;;;;;5036902;28;20029;-59
2021/11/30 07:02:16;;;;;;;9.57;1.00;;;;;;;;;;5037731;28;20048;-57
2021/11/30 07:04:44;;;;;;;15.75;1.27;;;;;;;;;;5037491;28;20032;-57
2021/11/30 07:15:08;;;;;;;8.95;1.30;;;;;;;;;;5034148;28;20041;-58
2021/11/30 07:17:37;;;;;;;7.93;1.13;;;;;;;;;;5039533;28;20079;-57
2021/11/30 07:20:04;;;;;;;5.78;0.60;;;;;;;;;;5038135;28;20041;-57
2021/11/30 07:22:32;;;;;;;2.25;0.55;;;;;;;;;;5036761;28;20043;-57
2021/11/30 07:25:02;;;;;;;6.35;0.80;;;;;;;;;;5000889;28;20115;-58
2021/11/30 07:27:32;;;;;;;8.77;1.20;;;;;;;;;;5038198;28;20032;-58
2021/11/30 07:30:03;;;;;;;8.45;1.50;;;;;;;;;;5023669;28;20075;-57
2021/11/30 07:32:30;;;;;;;11.93;1.25;;;;;;;;;;5035235;28;24874;-58
2021/11/30 07:34:58;;;;;;;10.43;0.98;;;;;;;;;;5038702;28;20047;-57
2021/11/30 07:37:31;;;;;;;8.23;1.45;;;;;;;;;;5035517;28;20500;-58
2021/11/30 07:39:59;;;;;;;9.93;1.20;;;;;;;;;;5034582;28;20040;-59
2021/11/30 07:42:26;;;;;;;8.35;2.22;;;;;;;;;;5021794;28;20098;-58
2021/11/30 07:44:51;;;;;;;11.75;2.50;;;;;;;;;;5037017;28;20029;-58
2021/11/30 07:47:21;;;;;;;24.83;1.33;;;;;;;;;;5051825;28;20303;-58
2021/11/30 07:49:47;;;;;;;18.67;1.77;;;;;;;;;;5050238;28;20045;-58
2021/11/30 07:52:15;;;;;;;18.58;1.90;;;;;;;;;;5033919;28;20021;-58
2021/11/30 07:54:41;;;;;;;26.17;2.10;;;;;;;;;;5037701;28;20125;-57
2021/11/30 07:57:07;;;;;;;23.88;1.67;;;;;;;;;;5033811;28;20107;-58
2021/11/30 07:59:33;;;;;;;10.88;1.60;;;;;;;;;;5052142;28;20040;-59
2021/11/30 08:02:00;;;;;;;23.40;1.83;;;;;;;;;;5033713;28;20045;-58
2021/11/30 08:04:28;;;;;;;17.67;1.60;;;;;;;;;;5036110;28;20028;-59
2021/11/30 08:06:59;;;;;;;14.70;1.42;;;;;;;;;;5026715;28;20127;-58
2021/11/30 08:09:34;;;;;;;17.83;1.33;;;;;;;;;;5037803;28;20066;-58
2021/11/30 08:12:02;;;;;;;13.43;1.17;;;;;;;;;;5035980;28;21961;-58
2021/11/30 08:14:29;;;;;;;11.70;1.45;;;;;;;;;;5035880;28;20040;-58
2021/11/30 08:17:00;;;;;;;6.68;1.10;;;;;;;;;;5034869;28;20108;-58
2021/11/30 08:19:28;;;;;;;18.60;2.05;;;;;;;;;;5026866;28;20041;-57
2021/11/30 08:21:59;;;;;;;14.15;1.75;;;;;;;;;;5036401;28;20217;-57
2021/11/30 08:24:27;;;;;;;12.45;1.45;;;;;;;;;;5052573;28;20043;-58
2021/11/30 08:27:00;;;;;;;22.70;1.92;;;;;;;;;;5037042;28;20128;-57
2021/11/30 08:29:27;;;;;;;13.07;1.83;;;;;;;;;;5024032;28;20439;-57
2021/11/30 08:31:55;;;;;;;10.85;1.05;;;;;;;;;;5038399;28;20052;-57
2021/11/30 08:34:21;;;;;;;4.32;1.63;;;;;;;;;;5032798;28;20220;-57
2021/11/30 08:36:49;;;;;;;4.47;0.90;;;;;;;;;;5037578;28;20046;-58
2021/11/30 08:39:14;;;;;;;11.80;1.35;;;;;;;;;;5034985;28;20768;-58
2021/11/30 08:41:40;;;;;;;11.95;1.52;;;;;;;;;;5033313;28;20906;-59
2021/11/30 08:44:05;;;;;;;10.32;1.17;;;;;;;;;;5037337;28;20028;-59
2021/11/30 08:46:33;;;;;;;12.57;1.70;;;;;;;;;;5016107;28;20040;-57
2021/11/30 08:49:06;;;;;;;6.65;2.17;;;;;;;;;;5053147;28;20028;-58
2021/11/30 08:51:31;;;;;;;12.57;1.85;;;;;;;;;;5034992;28;20029;-58
2021/11/30 08:54:00;;;;;;;14.38;2.03;;;;;;;;;;5038478;28;20585;-58
2021/11/30 08:56:28;;;;;;;21.27;1.83;;;;;;;;;;5033558;28;20045;-57
2021/11/30 08:58:58;;;;;;;20.55;2.13;;;;;;;;;;5020086;28;20041;-58
2021/11/30 09:01:28;;;;;;;8.45;1.17;;;;;;;;;;5020501;28;20082;-57
2021/11/30 09:03:54;;;;;;;13.45;1.00;;;;;;;;;;5037531;28;20099;-57
2021/11/30 09:06:22;;;;;;;6.75;1.35;;;;;;;;;;5035511;28;20136;-57
2021/11/30 09:08:52;;;;;;;13.98;1.35;;;;;;;;;;5039396;28;20373;-58
2021/11/30 09:11:22;;;;;;;14.75;1.67;;;;;;;;;;5035649;28;20147;-58
2021/11/30 09:13:48;;;;;;;12.25;1.08;;;;;;;;;;5037865;28;20028;-57
2021/11/30 09:16:14;;;;;;;12.18;1.45;;;;;;;;;;5036732;28;21977;-58
2021/11/30 09:18:40;;;;;;;16.80;1.45;;;;;;;;;;5031943;28;20047;-59
2021/11/30 09:21:13;;;;;;;10.77;1.58;;;;;;;;;;5033931;28;20032;-59
2021/11/30 09:23:38;;;;;;;11.38;2.28;;;;;;;;;;5035770;28;20035;-58
2021/11/30 09:26:06;;;;;;;12.60;1.30;;;;;;;;;;5032966;28;20116;-58
2021/11/30 09:28:35;;;;;;;9.43;1.88;;;;;;;;;;5036120;28;20028;-58
2021/11/30 09:31:01;;;;;;;10.50;1.10;;;;;;;;;;5035888;28;20033;-60
2021/11/30 09:33:26;;;;;;;17.58;1.80;;;;;;;;;;5034918;28;20896;-57
2021/11/30 09:35:52;;;;;;;8.30;1.23;;;;;;;;;;5037466;28;20028;-58
2021/11/30 09:38:17;;;;;;;12.73;1.08;;;;;;;;;;5038446;28;20927;-57
2021/11/30 09:40:54;;;;;;;17.90;1.83;;;;;;;;;;5029097;28;20037;-58
2021/11/30 09:43:22;;;;;;;;;;;;;;;;;;5040686;28;20029;-58
2021/11/30 09:45:52;;;;;;;7.75;1.27;;;;;;;;;;5039903;28;20558;-58
2021/11/30 09:48:24;;;;;;;8.02;1.48;;;;;;;;;;5037787;28;20030;-58
2021/11/30 09:50:50;;;;;;;19.67;1.75;;;;;;;;;;5054222;28;20451;-58
2021/11/30 09:53:22;;;;;;;10.27;1.42;;;;;;;;;;5038035;28;20033;-58
2021/11/30 09:55:51;;;;;;;13.30;1.67;;;;;;;;;;5038413;28;20381;-58
2021/11/30 09:58:20;;;;;;;17.60;1.77;;;;;;;;;;5038834;28;20119;-58
2021/11/30 10:00:50;;;;;;;20.55;2.00;;;;;;;;;;5040605;28;20117;-59
2021/11/30 10:03:18;;;;;;;8.55;1.27;;;;;;;;;;5041150;28;20087;-58
2021/11/30 10:05:44;;;;;;;23.25;2.10;;;;;;;;;;5039849;28;20065;-60
2021/11/30 10:08:31;;;;;;;13.20;1.60;;;;;;;;;;5040753;28;20135;-58
2021/11/30 10:11:00;;;;;;;21.27;2.30;;;;;;;;;;5036413;28;20088;-57
2021/11/30 10:13:26;;;;;;;29.00;2.38;;;;;;;;;;5039822;28;20020;-59
2021/11/30 10:16:05;;;;;;;18.60;2.25;;;;;;;;;;5038707;28;20036;-58
2021/11/30 10:18:43;;;;;;;15.80;2.10;;;;;;;;;;5036033;28;20037;-58
2021/11/30 10:21:27;;;;;;;13.25;1.90;;;;;;;;;;5050424;28;20567;-57
2021/11/30 10:24:00;;;;;;;13.65;2.50;;;;;;;;;;5041016;28;20111;-58
2021/11/30 10:26:30;;;;;;;19.80;2.20;;;;;;;;;;5043847;28;20025;-58
2021/11/30 10:29:09;;;;;;;17.98;2.40;;;;;;;;;;5041555;28;20484;-58
2021/11/30 10:31:42;;;;;;;23.35;2.15;;;;;;;;;;5037493;28;20077;-58
2021/11/30 10:34:18;;;;;;;20.70;2.60;;;;;;;;;;5036197;28;20037;-60
2021/11/30 10:37:09;;;;;;;11.18;2.70;;;;;;;;;;5036343;28;20076;-59
2021/11/30 10:39:40;;;;;;;17.92;2.13;;;;;;;;;;5038920;28;20109;-59
2021/11/30 10:42:19;;;;;;;20.98;2.40;;;;;;;;;;5016778;28;20033;-58
2021/11/30 10:44:51;;;;;;;20.25;2.70;;;;;;;;;;5034025;28;20032;-58
2021/11/30 10:47:22;;;;;;;18.58;2.67;;;;;;;;;;5036066;28;20028;-58
2021/11/30 10:49:57;;;;;;;14.75;2.13;;;;;;;;;;5037013;28;20024;-58
2021/11/30 10:52:26;;;;;;;15.55;2.05;;;;;;;;;;5036925;28;20165;-59
2021/11/30 10:55:03;;;;;;;19.50;2.50;;;;;;;;;;5037305;28;20025;-58
2021/11/30 10:57:30;;;;;;;15.48;1.77;;;;;;;;;;5038736;28;20036;-58
2021/11/30 11:00:13;;;;;;;29.73;2.97;;;;;;;;;;5037023;28;20040;-58
2021/11/30 11:02:49;;;;;;;16.50;2.30;;;;;;;;;;5032958;28;20044;-58
2021/11/30 11:05:18;;;;;;;36.25;2.70;;;;;;;;;;5016803;28;20338;-58
2021/11/30 11:08:07;;;;;;;12.98;2.25;;;;;;;;;;5033798;28;20033;-57
2021/11/30 11:10:41;;;;;;;22.17;2.05;;;;;;;;;;5033976;28;20032;-57
2021/11/30 11:13:18;;;;;;;24.48;3.10;;;;;;;;;;5034485;28;20041;-58
2021/11/30 11:15:44;;;;;;;21.45;1.98;;;;;;;;;;5040813;28;20036;-58
2021/11/30 11:18:23;;;;;;;16.05;2.50;;;;;;;;;;5038281;28;20075;-59
2021/11/30 11:20:50;;;;;;;18.15;2.20;;;;;;;;;;5032623;28;20120;-59
2021/11/30 11:23:23;;;;;;;13.43;2.15;;;;;;;;;;5035666;28;20936;-58
2021/11/30 11:25:53;;;;;;;16.15;2.00;;;;;;;;;;5036025;28;20029;-58
2021/11/30 11:28:24;;;;;;;11.80;1.88;;;;;;;;;;5038346;28;20017;-59
2021/11/30 11:30:50;;;;;;;17.42;2.80;;;;;;;;;;5036420;28;20083;-59
2021/11/30 11:33:19;;;;;;;23.08;3.13;;;;;;;;;;5038966;28;20068;-59
2021/11/30 11:35:44;;;;;;;22.52;2.33;;;;;;;;;;5037517;28;20073;-59
2021/11/30 11:38:13;;;;;;;23.42;2.35;;;;;;;;;;5035525;28;20036;-59
2021/11/30 11:40:44;;;;;;;14.95;2.38;;;;;;;;;;5034123;28;20040;-59
2021/11/30 11:43:12;;;;;;;24.15;2.20;;;;;;;;;;5033481;28;21096;-59
2021/11/30 11:45:40;;;;;;;12.00;1.92;;;;;;;;;;5037240;28;20021;-59
2021/11/30 11:48:07;;;;;;;25.38;2.88;;;;;;;;;;5033259;28;20040;-58
2021/11/30 11:50:49;;;;;;;22.83;2.83;;;;;;;;;;5035934;28;20029;-59
2021/11/30 11:53:21;;;;;;;24.95;3.03;;;;;;;;;;5036165;28;20373;-58
2021/11/30 11:56:11;;;;;;;18.83;2.20;;;;;;;;;;5037727;28;20065;-59
2021/11/30 11:58:40;;;;;;;18.38;2.60;;;;;;;;;;5036046;28;20033;-59
2021/11/30 12:01:14;;;;;;;21.45;1.80;;;;;;;;;;5035230;28;20108;-57
2021/11/30 12:03:55;;;;;;;22.08;2.85;;;;;;;;;;5036383;28;20492;-58
2021/11/30 12:06:22;;;;;;;22.33;2.28;;;;;;;;;;5032921;28;20163;-58
2021/11/30 12:09:08;;;;;;;7.03;1.40;;;;;;;;;;5033692;28;20021;-58
2021/11/30 12:11:39;;;;;;;13.27;2.08;;;;;;;;;;5034345;28;20029;-58
2021/11/30 12:14:22;;;;;;;18.98;1.75;;;;;;;;;;5034233;28;20579;-58
2021/11/30 12:17:06;;;;;;;15.85;2.40;;;;;;;;;;5034095;28;20032;-58
2021/11/30 12:19:35;;;;;;;14.13;2.28;;;;;;;;;;5036322;28;20464;-58
2021/11/30 12:22:01;;;;;;;12.45;1.85;;;;;;;;;;5035365;28;22045;-58
2021/11/30 12:24:33;;;;;;;6.13;1.20;;;;;;;;;;5035010;28;20025;-58
2021/11/30 12:26:59;;;;;;;10.63;1.83;;;;;;;;;;5035156;28;20032;-59
2021/11/30 12:29:30;;;;;;;13.15;2.30;;;;;;;;;;5036072;28;20059;-58
2021/11/30 12:31:58;;;;;;;9.77;1.52;;;;;;;;;;5031840;28;20040;-58
2021/11/30 12:34:40;;;;;;;9.77;1.30;;;;;;;;;;5035599;28;20375;-59
2021/11/30 12:37:12;;;;;;;12.88;2.25;;;;;;;;;;5033989;28;20036;-58
2021/11/30 12:39:53;;;;;;;17.33;2.25;;;;;;;;;;5046981;28;20040;-58
2021/11/30 12:42:23;;;;;;;14.55;1.70;;;;;;;;;;5033152;28;21032;-59
2021/11/30 12:44:54;;;;;;;10.80;1.88;;;;;;;;;;5028873;28;20029;-60
2021/11/30 12:47:21;;;;;;;16.25;2.30;;;;;;;;;;5028299;28;20055;-61
2021/11/30 12:49:50;;;;;;;23.60;1.98;;;;;;;;;;5047621;28;20190;-61
2021/11/30 12:52:18;;;;;;;24.38;2.40;;;;;;;;;;5036242;28;21013;-60
2021/11/30 12:55:02;;;;;;;13.30;1.83;;;;;;;;;;5035173;28;20029;-60
2021/11/30 12:57:36;;;;;;;13.88;1.63;;;;;;;;;;5014819;28;20039;-60
2021/11/30 13:00:02;;;;;;;16.23;1.98;;;;;;;;;;5031131;28;20024;-60
2021/11/30 13:02:34;;;;;;;14.25;1.55;;;;;;;;;;5029621;28;20531;-59
2021/11/30 13:05:09;;;;;;;18.10;2.47;;;;;;;;;;5047538;28;20036;-60
2021/11/30 13:07:36;;;;;;;;;;;;;;;;;;5031511;28;20525;-59
2021/11/30 13:10:04;;;;;;;13.60;1.92;;;;;;;;;;5034134;28;20003;-59
2021/11/30 13:16:04;;;;;;;14.93;1.70;;;;;;;;;;5036454;28;20102;-59
2021/11/30 13:18:36;;;;;;;19.15;2.10;;;;;;;;;;5038253;28;20476;-59
2021/11/30 13:21:05;;;;;;;15.15;1.90;;;;;;;;;;5034982;28;20109;-60
2021/11/30 13:23:33;;;;;;;13.80;1.88;;;;;;;;;;5039008;28;20031;-59
2021/11/30 13:26:03;;;;;;;23.60;1.92;;;;;;;;;;5051486;28;20033;-59
2021/11/30 13:28:29;;;;;;;12.95;1.60;;;;;;;;;;5035700;28;20029;-59
2021/11/30 13:31:00;;;;;;;17.73;2.03;;;;;;;;;;5035314;28;20064;-58
2021/11/30 13:33:31;;;;;;;12.40;1.45;;;;;;;;;;5036988;28;20024;-59
2021/11/30 13:36:04;;;;;;;23.15;2.78;;;;;;;;;;5034621;28;20039;-59
2021/11/30 13:38:40;;;;;;;28.98;2.10;;;;;;;;;;5050390;28;20036;-59
2021/11/30 13:41:10;;;;;;;8.93;1.70;;;;;;;;;;5032516;28;20460;-59
2021/11/30 13:43:36;;;;;;;19.80;2.05;;;;;;;;;;5036318;28;21929;-58
2021/11/30 13:46:09;;;;;;;12.82;1.75;;;;;;;;;;5032627;28;20035;-58
2021/11/30 13:48:39;;;;;;;11.25;1.58;;;;;;;;;;5037054;28;20029;-59
2021/11/30 13:51:33;;;;;;;6.78;1.17;;;;;;;;;;5051079;28;21486;-59
2021/11/30 13:53:59;;;;;;;14.02;1.77;;;;;;;;;;5029494;28;20480;-59
2021/11/30 13:56:29;;;;;;;20.63;1.58;;;;;;;;;;5034070;28;20032;-59
2021/11/30 13:59:17;;;;;;;13.43;1.88;;;;;;;;;;5049737;28;20033;-58
2021/11/30 14:04:13;;;;;;;18.63;1.40;;;;;;;;;;5036726;28;20031;-59
2021/11/30 14:06:43;;;;;;;5.20;1.35;;;;;;;;;;5021521;28;20029;-59
2021/11/30 14:09:13;;;;;;;27.27;1.50;;;;;;;;;;5034377;28;20031;-58
2021/11/30 14:12:07;;;;;;;17.85;1.48;;;;;;;;;;5039614;28;20528;-61
2021/11/30 14:14:35;;;;;;;27.63;1.98;;;;;;;;;;5036349;28;20040;-59
2021/11/30 14:17:06;;;;;;;7.88;0.98;;;;;;;;;;5029861;28;20125;-59
2021/11/30 14:19:31;;;;;;;11.80;1.40;;;;;;;;;;5036489;28;20028;-59
2021/11/30 14:21:58;;;;;;;17.40;1.38;;;;;;;;;;5038770;28;20487;-60
2021/11/30 14:24:23;;;;;;;15.82;1.30;;;;;;;;;;5051051;28;20071;-58
2021/11/30 14:26:52;;;;;;;8.55;1.10;;;;;;;;;;5037244;28;20048;-58
2021/11/30 14:29:22;;;;;;;9.20;1.05;;;;;;;;;;5020084;28;20048;-58
2021/11/30 14:31:57;;;;;;;6.82;1.10;;;;;;;;;;5034748;28;20037;-58
2021/11/30 14:34:26;;;;;;;11.85;1.33;;;;;;;;;;5048228;28;20495;-59
2021/11/30 14:36:54;;;;;;;6.22;1.10;;;;;;;;;;5034343;28;20460;-57
2021/11/30 14:39:34;;;;;;;6.93;1.17;;;;;;;;;;5034284;28;20118;-58
2021/11/30 14:42:04;;;;;;;5.85;0.95;;;;;;;;;;5034253;28;20044;-58
2021/11/30 14:44:36;;;;;;;9.80;0.93;;;;;;;;;;5034088;28;20991;-58
2021/11/30 14:47:15;;;;;;;8.43;1.20;;;;;;;;;;5034682;28;20035;-58
2021/11/30 14:49:42;;;;;;;5.72;1.50;;;;;;;;;;5035292;28;20036;-58
2021/11/30 14:52:19;;;;;;;11.70;1.27;;;;;;;;;;5034604;28;20032;-57
2021/11/30 14:54:47;;;;;;;8.88;1.02;;;;;;;;;;5034615;28;20060;-58
2021/11/30 14:57:31;;;;;;;10.98;1.08;;;;;;;;;;5033333;28;20055;-59
2021/11/30 14:59:58;;;;;;;4.63;0.95;;;;;;;;;;5035872;28;20055;-59
2021/11/30 15:02:28;;;;;;;13.68;1.55;;;;;;;;;;5035241;28;20044;-59
2021/11/30 15:04:59;;;;;;;10.55;1.33;;;;;;;;;;5035782;28;20146;-59
2021/11/30 15:07:31;;;;;;;11.77;1.75;;;;;;;;;;5031755;28;20041;-59
2021/11/30 15:10:00;;;;;;;10.20;1.20;;;;;;;;;;5032223;28;20039;-59
2021/11/30 15:12:26;;;;;;;6.80;1.08;;;;;;;;;;5032850;28;20171;-59
2021/11/30 15:14:53;;;;;;;11.68;1.25;;;;;;;;;;5034659;28;20047;-59
2021/11/30 15:17:21;;;;;;;5.38;1.15;;;;;;;;;;5017054;28;20033;-59
2021/11/30 15:19:50;;;;;;;6.20;1.05;;;;;;;;;;5034648;28;20037;-58
2021/11/30 15:22:20;;;;;;;10.27;1.33;;;;;;;;;;5033117;28;20032;-58